Aeroporto :
LOGIN :

Iscrizione | Disclaimer

   EN    FR    IT 

 










Sommario :    VFR   VFR Marginale   IFR   IFR Intensivo   IFR Molto Intensivo
Visibilità : 
Base nubi : 
>= 8 km
>= 3000ft
5 / 8 km
1000 / 3000 ft
1500m / 5 km
500 / 1000 ft
800 / 1500m
200 / 500 ft
< 800m
< 200 ft
Simboli :   Temporali  Nebbia  Neve Forte  Precipitazioni Forti  Vento > 20 kt
SIGMETs :   Varie  Temporali  Ghiacco  Turbolenza  Onda orograficha  Ceneri Vulcaniche






- Altitudine del aeroporto : 628 ft
- Codice IATA : CMR


LFGA - Colmar-Houssen

ULTIMO METAR :
  • 230800Z AUTO 17005KT 140V210 9999 BKN048 BKN100 22/16 Q1021

METARs OBSOLETI :
  • 230730Z AUTO 16004KT 9999 FEW048 21/15 Q1021
  • 230700Z AUTO 14004KT 110V180 9999 FEW048 19/16 Q1021
  • 230630Z AUTO 18004KT 120V260 9999 BKN047 19/16 Q1021
  • 230600Z AUTO VRB02KT 9999 BKN045 20/14 Q1021
  • 230530Z AUTO 24004KT 9999 FEW046 19/14 Q1021
  • 230500Z AUTO 27003KT CAVOK 18/14 Q1021
  • 230430Z AUTO 25005KT CAVOK 17/14 Q1021
  • 230400Z AUTO 27003KT CAVOK 17/15 Q1021

TAF N/A



MetMap, La meteo Aeronautica in un colpo d'occhio ! - Copyright ORBIFLY Dicembre 2007 - Disclaimer

ORBIFLY MET'MAP TEAM :

Programmazione e sviluppo : Alexandra Zaïnal
Concezione : Baudouin d'Aumeries
Supporto tecnico e logistico : Manuel Goepfert
Aiuto : Marc-Olivier Méhu
Aiuto per la traduzione : Arnaldo La Scala




FONTI E CREDITI :

   NOAA